createdAt,value
2023-01-22T00:03:56.503Z,7.40
2023-01-22T00:09:05.147Z,4.60
2023-01-22T00:14:13.077Z,3.70
2023-01-22T00:19:20.596Z,10.63
2023-01-22T00:24:28.666Z,5.63
2023-01-22T00:29:35.485Z,5.30
2023-01-22T00:34:42.476Z,3.80
2023-01-22T00:39:49.398Z,5.77
2023-01-22T00:44:57.064Z,4.13
2023-01-22T00:50:04.450Z,3.60
2023-01-22T00:55:11.615Z,3.40
2023-01-22T01:00:20.517Z,3.17
2023-01-22T01:05:28.781Z,3.37
2023-01-22T01:10:35.984Z,3.47
2023-01-22T01:15:43.530Z,3.40
2023-01-22T01:20:53.455Z,3.20
2023-01-22T01:26:00.348Z,3.20
2023-01-22T01:31:10.022Z,3.63
2023-01-22T01:36:35.492Z,3.03
2023-01-22T01:41:28.612Z,3.60
2023-01-22T01:46:38.468Z,3.20
2023-01-22T01:51:46.967Z,3.37
2023-01-22T01:56:56.906Z,3.40
2023-01-22T02:02:05.496Z,3.63
2023-01-22T02:07:12.495Z,3.80
2023-01-22T02:12:20.617Z,7.67
2023-01-22T02:17:27.645Z,3.70
2023-01-22T02:22:37.394Z,3.53
2023-01-22T02:27:44.272Z,3.43
2023-01-22T02:33:06.841Z,3.70
2023-01-22T02:38:27.641Z,3.50
2023-01-22T02:43:34.639Z,6.30
2023-01-22T02:48:43.070Z,3.63
2023-01-22T02:53:50.276Z,3.40
2023-01-22T02:58:57.705Z,3.60
2023-01-22T03:04:08.932Z,4.00
2023-01-22T03:09:17.481Z,3.60
2023-01-22T03:14:26.028Z,3.63
2023-01-22T03:19:34.560Z,3.37
2023-01-22T03:24:46.830Z,8.93
2023-01-22T03:29:53.950Z,12.50
2023-01-22T03:35:01.975Z,5.90
2023-01-22T03:40:11.356Z,3.93
2023-01-22T03:45:18.670Z,3.80
2023-01-22T03:50:26.905Z,3.70
2023-01-22T03:55:33.827Z,3.80
2023-01-22T04:00:42.131Z,4.23
2023-01-22T04:05:49.328Z,3.80
2023-01-22T04:10:58.511Z,3.70
2023-01-22T04:16:07.511Z,3.90
2023-01-22T04:21:16.035Z,4.03
2023-01-22T04:26:24.962Z,3.70
2023-01-22T04:31:33.177Z,3.73
2023-01-22T04:36:41.829Z,4.17
2023-01-22T04:41:48.722Z,4.10
2023-01-22T04:46:55.632Z,4.17
2023-01-22T04:52:02.622Z,3.57
2023-01-22T04:57:10.025Z,4.23
2023-01-22T05:02:17.256Z,4.00
2023-01-22T05:07:24.755Z,4.60
2023-01-22T05:12:32.041Z,3.73
2023-01-22T05:17:40.359Z,3.53
2023-01-22T05:22:47.339Z,3.53
2023-01-22T05:27:55.786Z,3.23
2023-01-22T05:33:04.272Z,3.50
2023-01-22T05:38:11.347Z,3.40
2023-01-22T05:43:18.596Z,3.10
2023-01-22T05:48:27.163Z,4.10
2023-01-22T05:53:36.568Z,3.53
2023-01-22T05:58:44.220Z,3.00
2023-01-22T06:03:52.326Z,3.37
2023-01-22T06:09:00.889Z,3.30
2023-01-22T06:14:09.403Z,3.40
2023-01-22T06:19:16.950Z,3.27
2023-01-22T06:24:25.560Z,3.30
2023-01-22T06:29:33.377Z,3.50
2023-01-22T06:34:40.785Z,3.07
2023-01-22T06:39:47.935Z,3.07
2023-01-22T06:44:57.315Z,3.03
2023-01-22T06:50:06.832Z,3.50
2023-01-22T06:55:13.796Z,2.83
2023-01-22T07:00:21.577Z,2.97
2023-01-22T07:05:28.638Z,2.80
2023-01-22T07:10:35.666Z,2.90
2023-01-22T07:15:42.755Z,3.20
2023-01-22T07:20:49.754Z,3.37
2023-01-22T07:25:57.081Z,2.83
2023-01-22T07:31:04.282Z,3.00
2023-01-22T07:36:11.492Z,3.17
2023-01-22T07:41:25.863Z,2.63
2023-01-22T07:46:27.840Z,4.80
2023-01-22T07:51:35.165Z,11.47
2023-01-22T07:56:42.063Z,2.90
2023-01-22T08:01:49.093Z,2.77
2023-01-22T08:06:56.223Z,2.77
2023-01-22T08:12:03.156Z,2.87
2023-01-22T08:17:10.024Z,2.87
2023-01-22T08:22:18.510Z,2.80
2023-01-22T08:27:25.603Z,2.97
2023-01-22T08:32:32.534Z,3.13
2023-01-22T08:37:39.605Z,3.00
2023-01-22T08:42:49.472Z,2.70
2023-01-22T08:48:00.326Z,3.20
2023-01-22T08:53:07.276Z,2.90
2023-01-22T08:58:15.335Z,2.60
2023-01-22T09:03:25.682Z,2.80
2023-01-22T09:08:33.260Z,2.53
2023-01-22T09:13:40.256Z,2.60
2023-01-22T09:18:47.265Z,2.80
2023-01-22T09:23:54.385Z,2.40
2023-01-22T09:29:01.831Z,2.90
2023-01-22T09:34:08.948Z,2.40
2023-01-22T09:39:15.844Z,2.50
2023-01-22T09:44:25.955Z,2.53
2023-01-22T09:49:35.857Z,2.50
2023-01-22T09:54:44.840Z,2.77
2023-01-22T09:59:55.949Z,2.47
2023-01-22T10:05:05.843Z,2.13
2023-01-22T10:10:15.761Z,2.30
2023-01-22T10:15:25.251Z,2.33
2023-01-22T10:20:32.600Z,2.40
2023-01-22T10:25:39.869Z,2.50
2023-01-22T10:30:50.196Z,2.60
2023-01-22T10:35:59.722Z,2.37
2023-01-22T10:41:07.346Z,2.60
2023-01-22T10:46:17.284Z,2.70
2023-01-22T10:51:27.727Z,2.80
2023-01-22T10:56:37.711Z,2.67
2023-01-22T11:01:45.060Z,3.30
2023-01-22T11:06:55.079Z,2.77
2023-01-22T11:12:04.914Z,2.80
2023-01-22T11:17:14.686Z,3.90
2023-01-22T11:22:24.852Z,4.93
2023-01-22T11:27:34.740Z,3.20
2023-01-22T11:32:44.614Z,2.93
2023-01-22T11:37:51.015Z,2.80
2023-01-22T11:43:00.900Z,2.97
2023-01-22T11:48:10.669Z,3.87
2023-01-22T11:53:20.673Z,3.80
2023-01-22T11:58:30.574Z,3.60
2023-01-22T12:03:38.640Z,3.20
2023-01-22T12:08:49.795Z,2.87
2023-01-22T12:13:59.503Z,2.90
2023-01-22T12:19:09.335Z,3.23
2023-01-22T12:24:17.468Z,2.97
2023-01-22T12:29:29.229Z,2.97
2023-01-22T12:34:39.523Z,2.67
2023-01-22T12:39:47.271Z,2.60
2023-01-22T12:44:55.775Z,3.10
2023-01-22T12:50:04.769Z,2.70
2023-01-22T12:55:17.070Z,3.40
2023-01-22T13:00:28.079Z,3.63
2023-01-22T13:05:34.993Z,3.57
2023-01-22T13:10:45.042Z,3.90
2023-01-22T13:15:55.542Z,3.37
2023-01-22T13:21:03.703Z,4.00
2023-01-22T13:26:13.632Z,3.90
2023-01-22T13:31:21.506Z,4.17
2023-01-22T13:36:29.544Z,4.60
2023-01-22T13:41:40.914Z,4.43
2023-01-22T13:46:48.604Z,4.27
2023-01-22T13:51:58.984Z,4.20
2023-01-22T13:57:07.943Z,4.10
2023-01-22T14:02:17.888Z,4.70
2023-01-22T14:13:05.873Z,5.10
2023-01-22T14:18:16.622Z,4.60
2023-01-22T14:23:24.394Z,4.73
2023-01-22T14:28:33.755Z,4.63
2023-01-22T14:33:40.745Z,5.17
2023-01-22T14:38:49.674Z,5.40
2023-01-22T14:43:57.895Z,5.10
2023-01-22T14:49:06.592Z,4.93
2023-01-22T14:54:13.583Z,4.97
2023-01-22T14:59:21.056Z,5.03
2023-01-22T15:04:28.380Z,4.80
2023-01-22T15:09:35.316Z,5.23
2023-01-22T15:14:42.549Z,4.77
2023-01-22T15:19:50.038Z,6.00
2023-01-22T15:24:57.168Z,5.57
2023-01-22T15:30:08.272Z,5.50
2023-01-22T15:35:15.513Z,6.93
2023-01-22T15:40:22.359Z,6.80
2023-01-22T15:45:31.127Z,6.73
2023-01-22T15:50:38.032Z,7.47
2023-01-22T15:55:47.950Z,7.10
2023-01-22T16:00:57.301Z,7.13
2023-01-22T16:06:06.451Z,6.47
2023-01-22T16:11:14.348Z,6.73
2023-01-22T16:16:20.707Z,6.33
2023-01-22T16:21:28.127Z,6.90
2023-01-22T16:26:36.684Z,6.73
2023-01-22T16:31:43.794Z,6.30
2023-01-22T16:36:50.767Z,6.33
2023-01-22T16:41:58.352Z,7.07
2023-01-22T16:47:05.317Z,6.70
2023-01-22T16:52:22.477Z,7.40
2023-01-22T16:57:21.287Z,8.67
2023-01-22T17:02:29.050Z,7.53
2023-01-22T17:07:36.096Z,8.07
2023-01-22T17:12:43.042Z,9.80
2023-01-22T17:17:50.364Z,7.87
2023-01-22T17:22:58.132Z,8.47
2023-01-22T17:28:05.110Z,8.63
2023-01-22T17:38:22.747Z,9.17
2023-01-22T17:43:29.842Z,8.87
2023-01-22T17:48:38.115Z,9.20
2023-01-22T17:53:46.824Z,8.77
2023-01-22T17:58:56.909Z,8.03
2023-01-22T18:04:06.904Z,8.10
2023-01-22T18:09:14.103Z,8.20
2023-01-22T18:14:22.988Z,9.10
2023-01-22T18:19:30.371Z,8.67
2023-01-22T18:24:37.238Z,7.40
2023-01-22T18:29:44.214Z,8.27
2023-01-22T18:34:51.173Z,7.93
2023-01-22T18:39:58.051Z,8.40
2023-01-22T18:45:05.165Z,8.30
2023-01-22T18:50:14.128Z,8.77
2023-01-22T18:55:22.317Z,8.83
2023-01-22T19:00:29.703Z,8.43
2023-01-22T19:05:39.733Z,8.63
2023-01-22T19:10:48.185Z,8.23
2023-01-22T19:15:55.011Z,7.53
2023-01-22T19:21:05.153Z,8.40
2023-01-22T19:26:15.305Z,7.67
2023-01-22T19:31:25.259Z,8.27
2023-01-22T19:36:35.080Z,8.13
2023-01-22T19:41:42.859Z,8.90
2023-01-22T19:46:49.872Z,8.73
2023-01-22T19:51:57.017Z,8.13
2023-01-22T19:57:03.896Z,9.23
2023-01-22T20:02:14.214Z,8.07
2023-01-22T20:07:25.603Z,8.43
2023-01-22T20:12:32.431Z,7.50
2023-01-22T20:17:39.872Z,7.77
2023-01-22T20:22:46.834Z,6.40
2023-01-22T20:27:54.260Z,7.07
2023-01-22T20:33:01.469Z,6.80
2023-01-22T20:38:08.535Z,7.43
2023-01-22T20:43:17.276Z,8.00
2023-01-22T20:48:25.372Z,8.03
2023-01-22T20:53:32.913Z,8.50
2023-01-22T20:58:40.245Z,7.00
2023-01-22T21:03:48.943Z,7.00
2023-01-22T21:08:57.004Z,6.97
2023-01-22T21:14:05.325Z,6.70
2023-01-22T21:19:15.615Z,6.43
2023-01-22T21:24:22.669Z,6.17
2023-01-22T21:29:29.763Z,6.20
2023-01-22T21:34:36.917Z,6.73
2023-01-22T21:39:45.498Z,6.70
2023-01-22T21:44:54.126Z,6.63
2023-01-22T21:50:01.088Z,7.10
2023-01-22T21:55:08.512Z,6.23
2023-01-22T22:00:17.119Z,7.47
2023-01-22T22:05:24.109Z,7.10
2023-01-22T22:10:31.263Z,7.00
2023-01-22T22:15:39.201Z,6.60
2023-01-22T22:20:46.174Z,6.70
2023-01-22T22:25:53.725Z,7.03
2023-01-22T22:31:03.640Z,6.80
2023-01-22T22:36:12.051Z,7.17
2023-01-22T22:41:21.516Z,7.33
2023-01-22T22:46:31.666Z,5.87
2023-01-22T22:51:41.078Z,5.93
2023-01-22T22:56:49.595Z,6.50
2023-01-22T23:01:56.357Z,6.33
2023-01-22T23:07:03.472Z,7.43
2023-01-22T23:12:10.260Z,6.80
2023-01-22T23:17:17.146Z,6.10
2023-01-22T23:22:24.128Z,7.00
2023-01-22T23:27:31.548Z,6.67
2023-01-22T23:32:39.227Z,6.87
2023-01-22T23:37:46.457Z,6.60
2023-01-22T23:42:53.335Z,6.60
2023-01-22T23:48:02.140Z,6.50
2023-01-22T23:53:08.967Z,6.10
2023-01-22T23:58:16.107Z,6.70
